Time;durP1;ratioP1;P1;durP2;ratioP2;P2;SDS_P1;SDS_P2;PMS_P1;PMS_P2;Temp;Humidity;BMP_temperature;BMP_pressure;BME280_temperature;BME280_humidity;BME280_pressure;Samples;Min_cycle;Max_cycle;Signal;HPM_P1;HPM_P2
2023/01/03 00:04:24;;;;;;;;;;;10.80;99.90;;;9.79;100.00;96591.09;10482077;28;3308;-76
2023/01/03 00:09:27;;;;;;;;;;;10.80;99.90;;;9.69;100.00;96597.97;10484482;28;3335;-76
2023/01/03 00:14:30;;;;;;;;;;;10.80;99.90;;;9.57;100.00;96589.19;10481882;28;3620;-74
2023/01/03 00:19:33;;;;;;;;;;;10.70;99.90;;;9.46;100.00;96604.34;10472929;28;3423;-76
2023/01/03 00:24:35;;;;;;;;;;;10.60;99.90;;;9.47;100.00;96610.50;10485413;28;3327;-75
2023/01/03 00:29:38;;;;;;;;;;;10.50;99.90;;;9.34;100.00;96621.59;10482456;28;3339;-77
2023/01/03 00:34:40;;;;;;;;;;;10.50;99.90;;;9.34;100.00;96624.25;10487445;28;3418;-77
2023/01/03 00:39:43;;;;;;;;;;;10.40;99.90;;;9.14;100.00;96638.97;10478069;28;3284;-76
2023/01/03 00:44:46;;;;;;;;;;;10.30;99.90;;;9.10;100.00;96653.94;10488082;28;3304;-75
2023/01/03 00:49:49;;;;;;;;;;;10.10;99.90;;;9.04;100.00;96652.25;10491606;28;3331;-76
2023/01/03 00:54:51;;;;;;;;;;;10.10;99.90;;;8.91;100.00;96655.22;10483977;28;3371;-75
2023/01/03 00:59:54;;;;;;;;;;;10.00;99.90;;;8.76;100.00;96657.63;10478803;28;3348;-75
2023/01/03 01:04:57;;;;;;;;;;;9.80;99.90;;;8.50;100.00;96667.84;10482966;28;3241;-75
2023/01/03 01:09:59;;;;;;;;;;;9.70;99.90;;;8.25;100.00;96673.47;10480689;28;3399;-75
2023/01/03 01:15:02;;;;;;;;;;;9.40;99.90;;;8.05;100.00;96673.88;10459974;28;3346;-75
2023/01/03 01:20:05;;;;;;;;;;;9.20;99.90;;;7.98;100.00;96693.81;10484947;28;3378;-76
2023/01/03 01:25:08;;;;;;;;;;;9.00;99.90;;;7.89;100.00;96685.31;10484964;28;3336;-76
2023/01/03 01:30:12;;;;;;;;;;;8.90;99.90;;;7.79;100.00;96687.75;10482347;28;3319;-75
2023/01/03 01:35:15;;;;;;;;;;;8.90;99.90;;;7.67;100.00;96689.63;10485516;28;3418;-74
2023/01/03 01:40:17;;;;;;;;;;;8.80;99.90;;;7.65;100.00;96694.41;10483078;28;3291;-75
2023/01/03 01:45:20;;;;;;;;;;;8.80;99.90;;;7.66;100.00;96702.19;10480887;28;3295;-75
2023/01/03 01:50:22;;;;;;;;;;;8.70;99.90;;;7.57;100.00;96692.84;10482186;28;3720;-75
2023/01/03 01:55:25;;;;;;;;;;;8.70;99.90;;;7.61;100.00;96704.75;10481697;28;3328;-78
2023/01/03 02:00:28;;;;;;;;;;;8.70;99.90;;;7.65;100.00;96705.09;10484234;28;3292;-77
2023/01/03 02:05:31;;;;;;;;;;;8.70;99.90;;;7.64;100.00;96703.47;10488798;28;3267;-75
2023/01/03 02:10:33;;;;;;;;;;;8.70;99.90;;;7.72;100.00;96705.78;10475064;28;3739;-75
2023/01/03 02:15:36;;;;;;;;;;;8.70;99.90;;;7.58;100.00;96716.72;10476820;28;3495;-76
2023/01/03 02:20:39;;;;;;;;;;;8.60;99.90;;;7.56;100.00;96718.00;10479566;28;3280;-75
2023/01/03 02:25:42;;;;;;;;;;;8.60;99.90;;;7.46;100.00;96710.53;10478714;28;3334;-75
2023/01/03 02:30:44;;;;;;;;;;;8.60;99.90;;;7.43;100.00;96720.88;10475426;28;3367;-75
2023/01/03 02:35:47;;;;;;;;;;;8.70;99.90;;;7.32;100.00;96714.50;10483354;28;3331;-76
2023/01/03 02:40:50;;;;;;;;;;;8.40;99.90;;;7.29;100.00;96717.59;10481148;28;3391;-75
2023/01/03 02:45:53;;;;;;;;;;;8.40;99.90;;;7.23;100.00;96719.34;10483972;28;3354;-77
2023/01/03 02:50:55;;;;;;;;;;;8.30;99.90;;;7.24;100.00;96726.31;10474128;28;3307;-75
2023/01/03 02:55:58;;;;;;;;;;;8.40;99.90;;;7.19;100.00;96722.69;10480530;28;3390;-75
2023/01/03 03:01:01;;;;;;;;;;;8.20;99.90;;;7.17;100.00;96732.81;10482656;28;3390;-73
2023/01/03 03:06:04;;;;;;;;;;;8.20;99.90;;;7.05;100.00;96740.78;10473272;28;3394;-74
2023/01/03 03:28:33;;;;;;;;;;;8.00;99.90;;;6.87;100.00;96733.66;10489814;28;3518;-73
2023/01/03 03:32:28;;;;;;;;;;;8.00;99.90;;;6.89;100.00;96726.22;10482879;28;3275;-73
2023/01/03 03:37:31;;;;;;;;;;;8.00;99.90;;;6.96;100.00;96737.63;10486484;28;3271;-74
2023/01/03 03:47:54;;;;;;;;;;;8.00;99.90;;;6.95;100.00;96732.50;10480359;28;3338;-73
2023/01/03 03:52:57;;;;;;;;;;;8.00;99.90;;;6.98;100.00;96718.69;10487310;28;3275;-74
2023/01/03 03:57:59;;;;;;;;;;;8.00;99.90;;;7.03;100.00;96719.63;10485780;28;3468;-74
2023/01/03 04:03:02;;;;;;;;;;;8.00;99.90;;;7.04;100.00;96702.53;10468281;28;3370;-76
2023/01/03 04:08:05;;;;;;;;;;;8.00;99.90;;;6.99;100.00;96722.97;10486369;28;3272;-74
2023/01/03 04:13:08;;;;;;;;;;;8.00;99.90;;;7.08;100.00;96729.66;10484117;28;3275;-75
2023/01/03 04:18:11;;;;;;;;;;;8.00;99.90;;;7.10;100.00;96734.75;10480908;28;3384;-75
2023/01/03 04:23:13;;;;;;;;;;;8.00;99.90;;;7.05;100.00;96720.22;10482539;28;3449;-74
2023/01/03 04:28:16;;;;;;;;;;;8.10;99.90;;;7.03;100.00;96719.63;10481871;28;3275;-77
2023/01/03 04:33:19;;;;;;;;;;;8.40;99.90;;;7.01;100.00;96728.94;10481950;28;3288;-75
2023/01/03 04:38:21;;;;;;;;;;;8.00;99.90;;;7.09;100.00;96733.13;10477036;28;3484;-74
2023/01/03 04:48:44;;;;;;;;;;;8.10;99.90;;;7.05;100.00;96735.44;10487469;28;3370;-74
2023/01/03 04:53:47;;;;;;;;;;;8.00;99.90;;;7.05;100.00;96744.28;10480626;28;3291;-75
2023/01/03 04:58:50;;;;;;;;;;;8.00;99.90;;;7.03;100.00;96729.50;10479906;28;3747;-75
2023/01/03 05:03:53;;;;;;;;;;;8.00;99.90;;;7.10;100.00;96729.41;10483067;28;3256;-75
2023/01/03 05:08:55;;;;;;;;;;;8.10;99.90;;;7.21;100.00;96742.00;10479318;28;3279;-75
2023/01/03 05:13:58;;;;;;;;;;;8.10;99.90;;;7.18;100.00;96753.16;10489937;28;3319;-76
2023/01/03 05:19:01;;;;;;;;;;;8.10;99.90;;;7.21;100.00;96747.34;10482363;28;3653;-76
2023/01/03 05:29:23;;;;;;;;;;;8.10;99.90;;;7.20;100.00;96754.56;10478969;28;3339;-78
2023/01/03 05:34:26;;;;;;;;;;;8.20;99.90;;;7.20;100.00;96764.44;10483063;28;3415;-75
2023/01/03 05:39:29;;;;;;;;;;;8.10;99.90;;;7.22;100.00;96767.69;10483065;28;3342;-75
2023/01/03 05:44:31;;;;;;;;;;;8.10;99.90;;;7.20;100.00;96762.59;10483714;28;3343;-76
2023/01/03 05:49:34;;;;;;;;;;;8.20;99.90;;;7.20;100.00;96772.47;10483696;28;3323;-75
2023/01/03 05:54:37;;;;;;;;;;;8.20;99.90;;;7.20;100.00;96772.47;10474034;28;3404;-73
2023/01/03 05:59:39;;;;;;;;;;;8.30;99.90;;;7.16;100.00;96773.97;10481801;28;3299;-74
2023/01/03 06:04:42;;;;;;;;;;;8.10;99.90;;;7.19;100.00;96768.16;10482435;28;3295;-75
2023/01/03 06:09:45;;;;;;;;;;;8.10;99.90;;;7.05;100.00;96765.66;10479119;28;3349;-76
2023/01/03 06:14:48;;;;;;;;;;;8.10;99.90;;;7.00;100.00;96767.41;10476393;28;3350;-77
2023/01/03 06:19:51;;;;;;;;;;;8.00;99.90;;;6.90;100.00;96767.94;10484738;28;3303;-76
2023/01/03 06:24:53;;;;;;;;;;;8.00;99.90;;;6.94;100.00;96769.13;10481538;28;3380;-75
2023/01/03 06:29:56;;;;;;;;;;;8.10;99.90;;;6.86;100.00;96781.97;10482282;28;3368;-74
2023/01/03 06:34:59;;;;;;;;;;;7.90;99.90;;;6.83;100.00;96779.75;10487528;28;3731;-76
2023/01/03 06:40:02;;;;;;;;;;;7.90;99.90;;;6.81;100.00;96785.34;10484171;28;3306;-75
2023/01/03 06:55:45;;;;;;;;;;;7.90;99.90;;;6.73;100.00;96794.44;10487998;28;3323;-75
2023/01/03 07:00:57;;;;;;;;;;;7.80;99.90;;;6.75;100.00;96803.06;10487597;28;3304;-75
2023/01/03 07:06:00;;;;;;;;;;;7.70;99.90;;;6.73;100.00;96805.13;10485539;28;3307;-72
2023/01/03 07:11:03;;;;;;;;;;;7.70;99.90;;;6.71;100.00;96811.75;10489507;28;3656;-74
2023/01/03 07:16:06;;;;;;;;;;;7.70;99.90;;;6.67;100.00;96818.56;10487520;28;3271;-75
2023/01/03 07:21:08;;;;;;;;;;;7.70;99.90;;;6.60;100.00;96831.19;10490303;28;3327;-74
2023/01/03 07:26:11;;;;;;;;;;;7.70;99.90;;;6.62;100.00;96834.47;10471595;28;3374;-72
2023/01/03 07:31:14;;;;;;;;;;;7.70;99.90;;;6.66;100.00;96841.00;10479512;28;3282;-74
2023/01/03 07:36:16;;;;;;;;;;;7.90;99.90;;;6.59;100.00;96845.59;10494370;28;3296;-73
2023/01/03 07:41:20;;;;;;;;;;;7.60;99.90;;;6.45;100.00;96842.25;10490697;28;3335;-73
2023/01/03 07:46:22;;;;;;;;;;;7.50;99.90;;;6.32;100.00;96856.56;10487284;28;3291;-74
2023/01/03 07:51:25;;;;;;;;;;;7.50;99.90;;;6.24;100.00;96864.84;10488538;28;3363;-74
2023/01/03 07:56:28;;;;;;;;;;;7.40;99.90;;;6.20;100.00;96871.66;10482867;28;3371;-77
2023/01/03 08:01:31;;;;;;;;;;;7.30;99.90;;;6.20;100.00;96874.31;10487693;28;3389;-76
2023/01/03 08:06:35;;;;;;;;;;;7.20;99.90;;;6.26;100.00;96862.75;10491624;28;3634;-75
2023/01/03 08:16:58;;;;;;;;;;;7.30;99.90;;;6.13;100.00;96885.06;10484721;28;3351;-77
2023/01/03 08:22:01;;;;;;;;;;;7.20;99.90;;;6.28;100.00;96887.38;10482780;28;3384;-75
2023/01/03 08:27:03;;;;;;;;;;;7.20;99.90;;;6.26;100.00;96900.16;10480813;28;3720;-73
2023/01/03 08:32:06;;;;;;;;;;;7.30;99.90;;;6.29;100.00;96904.22;10488216;28;3379;-76
2023/01/03 08:37:09;;;;;;;;;;;7.30;99.90;;;6.36;100.00;96900.47;10486312;28;3353;-74
2023/01/03 08:42:12;;;;;;;;;;;7.40;99.90;;;6.24;100.00;96907.56;10485297;28;3402;-74
2023/01/03 08:47:15;;;;;;;;;;;7.30;99.90;;;6.29;100.00;96905.03;10507266;28;3255;-74
2023/01/03 08:52:17;;;;;;;;;;;7.30;99.90;;;6.30;100.00;96916.53;10483975;28;3382;-78
2023/01/03 08:57:20;;;;;;;;;;;7.30;99.90;;;6.22;100.00;96914.97;10485035;28;3468;-75
2023/01/03 09:02:23;;;;;;;;;;;7.30;99.90;;;6.38;100.00;96932.31;10475883;28;3363;-80
2023/01/03 09:07:26;;;;;;;;;;;7.30;99.90;;;6.49;100.00;96940.44;10488226;28;3343;-73
2023/01/03 09:12:28;;;;;;;;;;;7.40;99.90;;;6.53;100.00;96943.47;10487001;28;3365;-74
2023/01/03 09:17:31;;;;;;;;;;;7.50;99.90;;;6.59;100.00;96941.78;10471275;28;3372;-73
2023/01/03 09:22:33;;;;;;;;;;;7.60;99.90;;;6.61;100.00;96945.03;10480310;28;3189;-75
2023/01/03 09:27:36;;;;;;;;;;;7.60;99.90;;;6.71;100.00;96950.69;10484027;28;3644;-74
2023/01/03 09:32:39;;;;;;;;;;;7.70;99.90;;;6.86;100.00;96937.78;10482679;28;3330;-75
2023/01/03 09:37:41;;;;;;;;;;;7.70;99.90;;;7.01;100.00;96948.16;10479893;28;3319;-77
2023/01/03 09:48:10;;;;;;;;;;;7.90;99.90;;;6.86;100.00;96953.00;10487947;28;3284;-73
2023/01/03 10:03:54;;;;;;;;;;;7.90;99.90;;;6.91;100.00;96934.47;10477206;28;3366;-72
2023/01/03 10:08:56;;;;;;;;;;;7.90;99.90;;;7.03;100.00;96936.19;10482324;28;3332;-72
2023/01/03 10:13:59;;;;;;;;;;;7.90;99.90;;;7.09;100.00;96928.31;10483331;28;3334;-74
2023/01/03 10:19:02;;;;;;;;;;;7.90;99.90;;;7.18;100.00;96937.66;10482304;28;3335;-75
2023/01/03 10:24:05;;;;;;;;;;;8.00;99.90;;;7.27;100.00;96933.66;10477485;28;3331;-74
2023/01/03 10:29:07;;;;;;;;;;;8.10;99.90;;;7.25;100.00;96925.88;10481515;28;3321;-75
2023/01/03 10:34:10;;;;;;;;;;;8.20;99.90;;;7.27;100.00;96923.78;10479080;28;3323;-73
2023/01/03 10:39:13;;;;;;;;;;;8.20;99.90;;;7.26;100.00;96916.78;10481984;28;3336;-73
2023/01/03 10:44:15;;;;;;;;;;;8.20;99.90;;;7.01;100.00;96924.91;10475555;28;3328;-73
2023/01/03 10:49:19;;;;;;;;;;;8.10;99.90;;;6.86;100.00;96908.41;10486917;28;3351;-73
2023/01/03 10:54:32;;;;;;;;;;;8.00;99.90;;;6.95;100.00;96909.75;10497800;28;3361;-73
2023/01/03 10:59:36;;;;;;;;;;;7.90;99.90;;;7.07;100.00;96917.84;10479850;28;3593;-74
2023/01/03 11:04:38;;;;;;;;;;;8.00;99.90;;;7.20;100.00;96917.69;10479828;28;3342;-72
2023/01/03 11:09:41;;;;;;;;;;;8.10;99.90;;;7.28;100.00;96914.72;10481585;28;3477;-73
2023/01/03 11:14:53;;;;;;;;;;;8.20;99.90;;;7.60;100.00;96906.47;10479748;28;3320;-74
2023/01/03 11:19:56;;;;;;;;;;;8.30;99.90;;;7.36;100.00;96894.84;10484936;28;3342;-72
2023/01/03 11:24:59;;;;;;;;;;;8.30;99.90;;;7.10;100.00;96901.34;10484282;28;3323;-72
2023/01/03 11:30:02;;;;;;;;;;;8.20;99.90;;;7.21;100.00;96908.63;10492912;28;3327;-73
2023/01/03 11:35:05;;;;;;;;;;;8.20;99.90;;;7.12;100.00;96898.44;10491470;28;3495;-73
2023/01/03 11:40:26;;;;;;;;;;;8.10;99.90;;;7.09;100.00;96901.56;10476134;28;3463;-74
2023/01/03 11:45:29;;;;;;;;;;;8.10;99.90;;;7.13;100.00;96900.09;10484977;28;3399;-73
2023/01/03 11:50:31;;;;;;;;;;;8.20;99.90;;;7.03;100.00;96884.56;10496172;28;3331;-72
2023/01/03 11:55:34;;;;;;;;;;;8.10;99.90;;;7.39;100.00;96883.72;10490789;28;3644;-72
2023/01/03 12:00:37;;;;;;;;;;;8.20;99.90;;;7.58;100.00;96874.59;10483124;28;3252;-73
2023/01/03 12:05:40;;;;;;;;;;;8.30;99.90;;;7.80;100.00;96876.75;10485850;28;3299;-72
2023/01/03 12:10:42;;;;;;;;;;;8.50;99.90;;;7.66;100.00;96861.94;10469209;28;3538;-72
2023/01/03 12:15:45;;;;;;;;;;;8.60;99.90;;;7.51;100.00;96852.47;10487415;28;3300;-73
2023/01/03 12:20:50;;;;;;;;;;;8.70;99.90;;;7.55;100.00;96864.34;10477230;28;3387;-73
2023/01/03 12:25:52;;;;;;;;;;;8.60;99.90;;;7.52;100.00;96864.81;10482840;28;3382;-74
2023/01/03 12:30:55;;;;;;;;;;;8.50;99.90;;;7.76;100.00;96867.53;10488945;28;3338;-77
2023/01/03 12:35:58;;;;;;;;;;;8.50;99.90;;;7.92;100.00;96861.53;10483761;28;3232;-74
2023/01/03 12:41:01;;;;;;;;;;;8.70;99.90;;;7.82;100.00;96861.25;10485969;28;3263;-74
2023/01/03 12:46:03;;;;;;;;;;;8.70;99.90;;;7.71;100.00;96859.41;10485161;28;3474;-76
2023/01/03 12:51:14;;;;;;;;;;;8.70;99.90;;;7.63;100.00;96854.34;10480861;28;3093;-76
2023/01/03 12:56:16;;;;;;;;;;;8.70;99.90;;;7.73;100.00;96846.59;10491528;28;3045;-72
2023/01/03 13:01:19;;;;;;;;;;;8.70;99.90;;;7.88;100.00;96832.75;10485927;28;3093;-71
2023/01/03 13:06:22;;;;;;;;;;;8.70;99.90;;;7.91;100.00;96835.81;10486130;28;3165;-72
2023/01/03 13:11:24;;;;;;;;;;;8.80;99.90;;;8.04;100.00;96840.94;10488800;28;3100;-73
2023/01/03 13:16:27;;;;;;;;;;;8.90;99.90;;;8.18;100.00;96838.03;10477683;28;3002;-70
2023/01/03 13:21:30;;;;;;;;;;;9.00;99.90;;;8.24;100.00;96847.84;10483855;28;3011;-71
2023/01/03 13:26:32;;;;;;;;;;;9.10;99.90;;;8.23;100.00;96840.84;10479427;28;3038;-72
2023/01/03 13:31:35;;;;;;;;;;;9.10;99.90;;;8.22;100.00;96840.03;10478974;28;3108;-71
2023/01/03 13:36:38;;;;;;;;;;;9.10;99.90;;;8.32;100.00;96834.09;10481398;28;3133;-73
2023/01/03 13:41:41;;;;;;;;;;;9.10;99.90;;;8.15;100.00;96838.53;10483118;28;3045;-71
2023/01/03 13:46:44;;;;;;;;;;;9.10;99.90;;;7.78;100.00;96842.19;10484191;28;3152;-73
2023/01/03 13:51:49;;;;;;;;;;;9.00;99.90;;;7.65;100.00;96850.41;10485426;28;3114;-71
2023/01/03 13:56:52;;;;;;;;;;;8.70;99.90;;;7.43;100.00;96858.13;10486368;28;3053;-72
2023/01/03 14:01:54;;;;;;;;;;;8.60;99.90;;;7.62;100.00;96855.41;10478270;28;2994;-71
2023/01/03 14:06:58;;;;;;;;;;;8.60;99.90;;;7.88;100.00;96865.69;10482219;28;3103;-72
2023/01/03 14:12:02;;;;;;;;;;;8.70;99.90;;;8.06;100.00;96860.28;10481310;28;3443;-72
2023/01/03 14:17:05;;;;;;;;;;;8.90;99.90;;;8.00;100.00;96863.88;10483741;28;3069;-72
2023/01/03 14:22:07;;;;;;;;;;;8.90;99.90;;;7.84;100.00;96865.38;10482920;28;3117;-70
2023/01/03 14:27:29;;;;;;;;;;;8.90;99.90;;;7.85;100.00;96866.19;10481949;28;3186;-72
2023/01/03 14:32:33;;;;;;;;;;;8.80;99.90;;;7.91;100.00;96873.28;10483858;28;3049;-73
2023/01/03 14:37:37;;;;;;;;;;;8.80;99.90;;;7.77;100.00;96866.50;10480917;28;3029;-73
2023/01/03 14:42:39;;;;;;;;;;;8.70;99.90;;;7.74;100.00;96875.00;10484206;28;3117;-73
2023/01/03 14:47:42;;;;;;;;;;;8.70;99.90;;;7.59;100.00;96878.91;10480977;28;3381;-75
2023/01/03 14:52:45;;;;;;;;;;;8.60;99.90;;;7.53;100.00;96884.34;10487208;28;3002;-74
2023/01/03 14:57:49;;;;;;;;;;;8.60;99.90;;;7.43;100.00;96881.38;10488952;28;3005;-73
2023/01/03 15:02:51;;;;;;;;;;;8.50;99.90;;;7.37;100.00;96895.66;10494239;28;3077;-72
2023/01/03 15:07:55;;;;;;;;;;;8.50;99.90;;;7.25;100.00;96900.94;10482871;28;3102;-72
2023/01/03 15:12:57;;;;;;;;;;;8.30;99.90;;;7.25;100.00;96906.31;10491667;28;3134;-74
2023/01/03 15:18:06;;;;;;;;;;;8.30;99.90;;;7.25;100.00;96908.97;10491231;28;2979;-75
2023/01/03 15:23:11;;;;;;;;;;;8.30;99.90;;;7.29;100.00;96912.84;10484691;28;3060;-73
2023/01/03 15:28:14;;;;;;;;;;;8.30;99.90;;;7.15;100.00;96922.88;10480970;28;3034;-72
2023/01/03 15:33:16;;;;;;;;;;;8.30;99.90;;;7.14;100.00;96923.13;10489989;28;3005;-74
2023/01/03 15:38:19;;;;;;;;;;;8.20;99.90;;;7.17;100.00;96917.31;10479771;28;3046;-74
2023/01/03 15:43:23;;;;;;;;;;;8.20;99.90;;;7.08;100.00;96924.00;10487307;28;3058;-73
2023/01/03 15:48:26;;;;;;;;;;;8.10;99.90;;;7.14;100.00;96928.47;10488244;28;3055;-74
2023/01/03 15:53:29;;;;;;;;;;;8.10;99.90;;;7.14;100.00;96917.78;10478627;28;3082;-75
2023/01/03 15:58:32;;;;;;;;;;;8.10;99.90;;;7.13;100.00;96929.50;10484390;28;3118;-74
2023/01/03 16:03:35;;;;;;;;;;;8.20;99.90;;;7.11;100.00;96934.25;10485809;28;3179;-74
2023/01/03 16:08:38;;;;;;;;;;;8.10;99.90;;;7.11;100.00;96940.41;10482973;28;3054;-75
2023/01/03 16:13:40;;;;;;;;;;;8.10;99.90;;;7.08;100.00;96924.81;10482528;28;3017;-73
2023/01/03 16:18:44;;;;;;;;;;;8.10;99.90;;;7.05;100.00;96930.59;10488354;28;3010;-72
2023/01/03 16:23:47;;;;;;;;;;;8.10;99.90;;;7.03;100.00;96932.69;10483890;28;3125;-75
2023/01/03 16:28:49;;;;;;;;;;;8.10;99.90;;;7.01;100.00;96938.28;10489769;28;2994;-73
2023/01/03 16:33:52;;;;;;;;;;;8.10;99.90;;;7.07;100.00;96941.09;10482250;28;2995;-77
2023/01/03 16:38:55;;;;;;;;;;;8.10;99.90;;;7.05;100.00;96947.47;10483631;28;3014;-73
2023/01/03 16:43:57;;;;;;;;;;;8.10;99.90;;;6.99;100.00;96948.34;10480172;28;3031;-74
2023/01/03 16:49:00;;;;;;;;;;;8.10;99.90;;;6.92;100.00;96949.47;10488869;28;3125;-76
2023/01/03 16:54:04;;;;;;;;;;;8.00;99.90;;;6.94;100.00;96955.41;10476430;28;3005;-75
2023/01/03 16:59:07;;;;;;;;;;;8.00;99.90;;;6.93;100.00;96957.25;10487652;28;3069;-76
2023/01/03 17:04:10;;;;;;;;;;;7.90;99.90;;;6.98;100.00;96962.75;10477163;28;3085;-73
2023/01/03 17:09:13;;;;;;;;;;;8.00;99.90;;;6.96;100.00;96961.34;10488041;28;3026;-75
2023/01/03 17:14:16;;;;;;;;;;;8.00;99.90;;;6.82;100.00;96952.66;10484817;28;3045;-76
2023/01/03 17:19:19;;;;;;;;;;;7.90;99.90;;;6.71;100.00;96956.88;10482056;28;3038;-77
2023/01/03 17:24:42;;;;;;;;;;;7.90;99.90;;;6.56;100.00;96967.09;10491426;28;2993;-74
2023/01/03 17:29:45;;;;;;;;;;;7.80;99.90;;;6.39;100.00;96969.47;10485881;28;3045;-74
2023/01/03 17:34:48;;;;;;;;;;;7.60;99.90;;;6.23;100.00;96986.00;10467186;28;3095;-73
2023/01/03 17:39:50;;;;;;;;;;;7.50;99.90;;;6.04;100.00;96986.97;10471622;28;3053;-76
2023/01/03 17:50:13;;;;;;;;;;;7.30;99.90;;;5.56;100.00;96993.56;10486992;28;3037;-75
2023/01/03 17:55:16;;;;;;;;;;;7.00;99.90;;;5.39;100.00;96979.88;10474428;28;3034;-74
2023/01/03 18:00:20;;;;;;;;;;;6.80;99.90;;;5.29;100.00;96992.84;10482903;28;3142;-74
2023/01/03 18:05:24;;;;;;;;;;;6.70;99.90;;;5.15;100.00;96988.56;10485213;28;3057;-76
2023/01/03 18:10:29;;;;;;;;;;;6.60;99.90;;;5.08;100.00;96974.44;10474877;28;3264;-73
2023/01/03 18:15:32;;;;;;;;;;;6.50;99.90;;;4.93;100.00;96984.53;10477796;28;3054;-75
2023/01/03 18:20:35;;;;;;;;;;;6.40;99.90;;;4.83;100.00;96996.41;10480508;28;3033;-75
2023/01/03 18:25:37;;;;;;;;;;;6.20;99.90;;;4.75;100.00;96993.97;10478487;28;3053;-76
2023/01/03 18:30:40;;;;;;;;;;;6.10;99.90;;;4.74;100.00;97003.00;10491173;28;2986;-75
2023/01/03 18:35:43;;;;;;;;;;;6.00;99.90;;;4.72;100.00;97002.41;10495121;28;3157;-76
2023/01/03 18:40:45;;;;;;;;;;;6.00;99.90;;;4.79;100.00;96995.22;10481760;28;3005;-76
2023/01/03 18:45:48;;;;;;;;;;;6.00;99.90;;;4.88;100.00;96993.16;10492455;28;3005;-76
2023/01/03 18:50:51;;;;;;;;;;;6.10;99.90;;;5.05;100.00;97004.19;10489166;28;3014;-77
2023/01/03 18:56:01;;;;;;;;;;;6.20;99.90;;;5.23;100.00;96999.03;10485809;28;3365;-76
2023/01/03 19:01:04;;;;;;;;;;;6.30;99.90;;;5.34;100.00;96993.03;10492389;28;2998;-76
2023/01/03 19:06:07;;;;;;;;;;;6.40;99.90;;;5.46;100.00;97011.03;10480818;28;3013;-76
2023/01/03 19:11:10;;;;;;;;;;;6.50;99.90;;;5.61;100.00;96995.59;10482521;28;3114;-75
2023/01/03 19:16:12;;;;;;;;;;;6.60;99.90;;;5.82;100.00;96995.28;10485846;28;3115;-75
2023/01/03 19:21:15;;;;;;;;;;;6.70;99.90;;;5.96;100.00;97007.53;10481521;28;3096;-75
2023/01/03 19:26:18;;;;;;;;;;;6.90;99.90;;;6.00;100.00;96983.09;10485350;28;3009;-73
2023/01/03 19:31:21;;;;;;;;;;;7.00;99.90;;;6.07;100.00;96975.88;10486146;28;3148;-76
2023/01/03 19:36:24;;;;;;;;;;;7.00;99.90;;;5.99;100.00;96968.94;10486874;28;3045;-77
2023/01/03 19:41:26;;;;;;;;;;;7.10;99.90;;;5.85;100.00;96968.19;10487191;28;3122;-78
2023/01/03 19:46:29;;;;;;;;;;;7.00;99.90;;;5.68;100.00;96967.84;10483910;28;3053;-74
2023/01/03 19:51:32;;;;;;;;;;;7.00;99.90;;;5.48;100.00;96964.47;10487822;28;3007;-74
2023/01/03 19:56:34;;;;;;;;;;;6.80;99.90;;;5.33;100.00;96956.72;10484476;28;3022;-73
2023/01/03 20:01:37;;;;;;;;;;;6.60;99.90;;;5.19;100.00;96972.97;10490843;28;3046;-74
2023/01/03 20:07:00;;;;;;;;;;;6.50;99.90;;;5.07;100.00;96970.13;10501035;28;3109;-76
2023/01/03 20:12:02;;;;;;;;;;;6.30;99.90;;;5.04;100.00;96971.38;10525681;28;3106;-76
2023/01/03 20:17:05;;;;;;;;;;;6.30;99.90;;;5.06;100.00;96963.19;10541320;28;2830;-80
2023/01/03 20:22:08;;;;;;;;;;;6.30;99.90;;;4.91;100.00;96971.44;10542954;28;1685;-79
2023/01/03 20:27:31;;;;;;;;;;;6.20;99.90;;;4.78;100.00;96977.59;10520030;28;2940;-79
2023/01/03 20:32:34;;;;;;;;;;;6.10;99.90;;;4.73;100.00;96969.41;10499256;28;3071;-79
2023/01/03 20:37:36;;;;;;;;;;;6.00;99.90;;;4.70;100.00;96979.63;10496335;28;2997;-79
2023/01/03 20:42:39;;;;;;;;;;;6.00;99.90;;;4.59;100.00;96970.44;10493547;28;3014;-78
2023/01/03 20:47:42;;;;;;;;;;;5.90;99.90;;;4.49;100.00;96972.69;10493446;28;3025;-78
2023/01/03 20:52:45;;;;;;;;;;;5.90;99.90;;;4.41;100.00;96981.72;10485968;28;3057;-78
2023/01/03 20:57:47;;;;;;;;;;;5.80;99.90;;;4.32;100.00;96978.41;10473168;28;3015;-78
2023/01/03 21:02:50;;;;;;;;;;;5.70;99.90;;;4.30;100.00;96985.81;10485395;28;2993;-79
2023/01/03 21:13:14;;;;;;;;;;;5.50;99.90;;;4.11;100.00;96991.94;10484433;28;3154;-79
2023/01/03 21:18:16;;;;;;;;;;;5.40;99.90;;;4.12;100.00;96987.44;10487492;28;3065;-79
2023/01/03 21:23:19;;;;;;;;;;;5.40;99.90;;;4.18;100.00;96982.09;10487800;28;3084;-79
2023/01/03 21:28:22;;;;;;;;;;;5.40;99.90;;;4.34;100.00;96979.06;10482900;28;3045;-79
2023/01/03 21:33:25;;;;;;;;;;;5.50;99.90;;;4.29;100.00;96976.19;10481940;28;3120;-77
2023/01/03 21:38:27;;;;;;;;;;;5.50;99.90;;;4.19;100.00;96980.25;10478139;28;2970;-77
2023/01/03 21:43:30;;;;;;;;;;;5.50;99.90;;;4.16;100.00;96978.84;10485509;28;3045;-80
2023/01/03 21:48:33;;;;;;;;;;;5.40;99.90;;;4.21;100.00;96980.91;10489485;28;2998;-79
2023/01/03 21:53:36;;;;;;;;;;;5.50;99.90;;;4.14;100.00;96977.41;10492107;28;3037;-78
2023/01/03 21:58:39;;;;;;;;;;;5.40;99.90;;;4.01;100.00;96964.91;10491027;28;3045;-79
2023/01/03 22:09:03;;;;;;;;;;;5.30;99.90;;;3.90;100.00;96973.50;10485089;28;3033;-80
2023/01/03 22:14:05;;;;;;;;;;;5.20;99.90;;;3.94;100.00;96974.72;10484830;28;3041;-79
2023/01/03 22:19:08;;;;;;;;;;;5.20;99.90;;;3.93;100.00;96978.38;10487803;28;3015;-80
2023/01/03 22:24:11;;;;;;;;;;;5.20;99.90;;;3.78;100.00;96976.72;10490726;28;3015;-78
2023/01/03 22:29:14;;;;;;;;;;;5.10;99.90;;;3.79;100.00;96978.38;10493106;28;2904;-77
2023/01/03 22:34:20;;;;;;;;;;;5.10;99.90;;;3.72;100.00;96974.88;10490970;28;3002;-76
2023/01/03 22:39:23;;;;;;;;;;;5.00;99.90;;;3.76;100.00;96970.00;10491335;28;1909;-78
2023/01/03 22:44:26;;;;;;;;;;;5.00;99.90;;;3.74;100.00;96966.69;10478117;28;3017;-77
2023/01/03 22:49:29;;;;;;;;;;;5.00;99.90;;;3.69;100.00;96966.47;10488382;28;2939;-78
2023/01/03 22:54:31;;;;;;;;;;;5.00;99.90;;;3.72;100.00;96972.22;10483658;28;2993;-76
2023/01/03 22:59:34;;;;;;;;;;;5.00;99.90;;;3.72;100.00;96966.09;10488563;28;3089;-78
2023/01/03 23:04:37;;;;;;;;;;;4.90;99.90;;;3.65;100.00;96954.63;10519155;28;3036;-78
2023/01/03 23:09:39;;;;;;;;;;;4.90;99.90;;;3.61;100.00;96948.88;10501859;28;3008;-77
2023/01/03 23:14:42;;;;;;;;;;;4.90;99.90;;;3.55;100.00;96952.31;10492772;28;3042;-77
2023/01/03 23:19:45;;;;;;;;;;;4.90;99.90;;;3.54;100.00;96950.69;10488169;28;3061;-77
2023/01/03 23:24:49;;;;;;;;;;;4.80;99.90;;;3.59;100.00;96950.91;10486142;28;3061;-77
2023/01/03 23:29:51;;;;;;;;;;;4.90;99.90;;;3.54;100.00;96942.72;10486255;28;3069;-76
2023/01/03 23:34:54;;;;;;;;;;;4.80;99.90;;;3.61;100.00;96942.72;10497863;28;3077;-78
2023/01/03 23:39:57;;;;;;;;;;;4.80;99.90;;;3.57;100.00;96936.19;10490308;28;2907;-78
2023/01/03 23:44:59;;;;;;;;;;;4.80;99.90;;;3.60;100.00;96935.78;10490867;28;3189;-78
2023/01/03 23:50:02;;;;;;;;;;;4.90;99.90;;;3.56;100.00;96935.34;10475127;28;3069;-77
2023/01/03 23:55:05;;;;;;;;;;;4.80;99.90;;;3.43;100.00;96936.13;10484194;28;3001;-78
